Time;durP1;ratioP1;P1;durP2;ratioP2;P2;SDS_P1;SDS_P2;PMS_P1;PMS_P2;Temp;Humidity;BMP_temperature;BMP_pressure;BME280_temperature;BME280_humidity;BME280_pressure;Samples;Min_cycle;Max_cycle;Signal;HPM_P1;HPM_P2
2023/02/24 00:02:22;;;;;;;0.10;0.10;;;8.90;99.90;;;;;;5025379;28;20178;-81
2023/02/24 00:04:50;;;;;;;0.10;0.10;;;8.90;99.90;;;;;;5027676;28;20234;-81
2023/02/24 00:07:16;;;;;;;0.10;0.10;;;8.90;99.90;;;;;;5029583;28;20174;-81
2023/02/24 00:09:43;;;;;;;0.10;0.10;;;8.70;99.90;;;;;;5028968;28;21006;-81
2023/02/24 00:12:14;;;;;;;0.10;0.10;;;8.80;99.90;;;;;;5025933;28;20190;-81
2023/02/24 00:14:42;;;;;;;0.03;0.03;;;8.80;99.90;;;;;;5026847;28;20209;-81
2023/02/24 00:17:08;;;;;;;0.10;0.10;;;8.90;99.90;;;;;;5026352;28;20244;-80
2023/02/24 00:19:35;;;;;;;0.10;0.10;;;8.90;99.90;;;;;;5027274;28;20216;-81
2023/02/24 00:22:02;;;;;;;0.00;0.00;;;8.60;99.90;;;;;;5028026;28;20196;-81
2023/02/24 00:24:28;;;;;;;0.03;0.03;;;8.60;99.90;;;;;;5024802;28;20209;-81
2023/02/24 00:26:59;;;;;;;0.10;0.10;;;8.50;99.90;;;;;;5023573;28;20192;-80
2023/02/24 00:29:27;;;;;;;0.10;0.10;;;8.50;99.90;;;;;;5025812;28;20182;-81
2023/02/24 00:31:58;;;;;;;0.03;0.03;;;8.50;99.90;;;;;;5023420;28;20186;-81
2023/02/24 00:34:27;;;;;;;0.10;0.10;;;8.50;99.90;;;;;;5024680;28;20308;-80
2023/02/24 00:36:53;;;;;;;0.10;0.10;;;8.50;99.90;;;;;;5026557;28;20187;-80
2023/02/24 00:39:29;;;;;;;0.10;0.10;;;8.40;99.90;;;;;;5025559;28;20177;-81
2023/02/24 00:42:03;;;;;;;0.10;0.10;;;8.40;99.90;;;;;;5027993;28;20709;-81
2023/02/24 00:44:39;;;;;;;0.10;0.10;;;8.40;99.90;;;;;;5026734;28;20239;-81
2023/02/24 00:47:06;;;;;;;0.10;0.10;;;8.50;99.90;;;;;;5021652;28;20184;-81
2023/02/24 00:49:34;;;;;;;0.10;0.10;;;8.60;99.90;;;;;;5025186;28;20185;-80
2023/02/24 00:52:05;;;;;;;0.10;0.10;;;8.60;99.90;;;;;;5026732;28;20189;-81
2023/02/24 00:54:35;;;;;;;0.10;0.10;;;8.40;99.90;;;;;;5024981;28;20303;-80
2023/02/24 00:57:01;;;;;;;0.10;0.10;;;8.50;99.90;;;;;;5024077;28;20189;-80
2023/02/24 00:59:27;;;;;;;0.03;0.03;;;8.40;99.90;;;;;;5024281;28;20229;-81
2023/02/24 01:01:53;;;;;;;0.10;0.10;;;8.50;99.90;;;;;;5027639;28;20658;-81
2023/02/24 01:04:20;;;;;;;0.10;0.10;;;8.70;99.90;;;;;;5023291;28;20223;-80
2023/02/24 01:06:49;;;;;;;0.10;0.10;;;8.70;99.90;;;;;;5027317;28;20273;-80
2023/02/24 01:09:19;;;;;;;0.00;0.00;;;8.60;99.90;;;;;;5028462;28;20218;-81
2023/02/24 01:14:33;;;;;;;0.10;0.10;;;8.60;99.90;;;;;;5027117;28;20228;-81
2023/02/24 01:16:59;;;;;;;0.10;0.10;;;8.50;99.90;;;;;;5025847;28;20607;-80
2023/02/24 01:19:30;;;;;;;0.10;0.10;;;8.60;99.90;;;;;;5021756;28;20182;-81
2023/02/24 01:21:57;;;;;;;0.10;0.10;;;8.70;99.90;;;;;;5022523;28;20186;-81
2023/02/24 01:24:24;;;;;;;0.10;0.10;;;8.80;99.90;;;;;;5024185;28;20197;-81
2023/02/24 01:26:50;;;;;;;0.07;0.07;;;8.90;99.90;;;;;;5021063;28;20219;-81
2023/02/24 01:29:16;;;;;;;0.10;0.10;;;9.00;99.90;;;;;;5023565;28;20655;-80
2023/02/24 01:31:41;;;;;;;0.10;0.10;;;9.00;99.90;;;;;;5022682;28;20186;-81
2023/02/24 01:34:09;;;;;;;0.10;0.10;;;9.10;99.90;;;;;;5027842;28;20226;-81
2023/02/24 01:36:37;;;;;;;0.10;0.10;;;9.10;99.90;;;;;;5026569;28;20656;-81
2023/02/24 01:39:04;;;;;;;0.10;0.10;;;9.20;99.90;;;;;;5026480;28;20638;-80
2023/02/24 01:41:30;;;;;;;0.10;0.10;;;9.30;99.90;;;;;;5025649;28;20182;-81
2023/02/24 01:44:28;;;;;;;0.10;0.10;;;9.30;99.90;;;;;;5027986;28;20256;-81
2023/02/24 01:46:54;;;;;;;0.10;0.10;;;9.30;99.90;;;;;;5024534;28;20178;-80
2023/02/24 01:49:21;;;;;;;0.10;0.10;;;9.30;99.90;;;;;;5021372;28;20189;-81
2023/02/24 01:51:57;;;;;;;0.10;0.10;;;9.30;99.90;;;;;;5026624;28;20182;-81
2023/02/24 01:54:29;;;;;;;0.10;0.10;;;9.30;99.90;;;;;;5025439;28;20264;-81
2023/02/24 01:56:55;;;;;;;0.10;0.10;;;9.20;99.90;;;;;;5027099;28;20205;-81
2023/02/24 01:59:25;;;;;;;0.10;0.10;;;9.20;99.90;;;;;;5027279;28;20607;-81
2023/02/24 02:01:54;;;;;;;0.00;0.00;;;9.10;99.90;;;;;;5026672;28;20266;-80
2023/02/24 02:04:25;;;;;;;0.10;0.10;;;9.00;99.90;;;;;;5026207;28;20268;-81
2023/02/24 02:06:51;;;;;;;0.10;0.10;;;9.00;99.90;;;;;;5028256;28;20177;-81
2023/02/24 02:09:17;;;;;;;0.10;0.10;;;8.90;99.90;;;;;;5026255;28;21248;-80
2023/02/24 02:11:48;;;;;;;0.10;0.10;;;8.90;99.90;;;;;;5022166;28;20913;-81
2023/02/24 02:14:19;;;;;;;0.10;0.10;;;8.70;99.90;;;;;;5023789;28;20202;-81
2023/02/24 02:16:54;;;;;;;0.10;0.10;;;8.70;99.90;;;;;;5025644;28;20181;-81
2023/02/24 02:19:39;;;;;;;0.10;0.10;;;8.80;99.90;;;;;;5025966;28;20760;-81
2023/02/24 02:22:25;;;;;;;0.10;0.10;;;8.80;99.90;;;;;;5028167;28;20240;-80
2023/02/24 02:25:11;;;;;;;0.10;0.10;;;8.80;99.90;;;;;;5025342;28;20232;-81
2023/02/24 02:27:51;;;;;;;0.10;0.10;;;8.70;99.90;;;;;;5024357;28;20208;-81
2023/02/24 02:30:38;;;;;;;0.10;0.10;;;8.70;99.90;;;;;;5026654;28;20192;-81
2023/02/24 02:33:41;;;;;;;0.10;0.10;;;8.80;99.90;;;;;;5004012;28;20205;-80
2023/02/24 02:36:48;;;;;;;0.10;0.10;;;8.90;99.90;;;;;;5025487;28;20203;-81
2023/02/24 02:39:24;;;;;;;0.03;0.03;;;8.90;99.90;;;;;;4981223;28;20218;-80
2023/02/24 02:41:54;;;;;;;0.10;0.10;;;9.00;99.90;;;;;;5020816;28;20252;-81
2023/02/24 02:44:31;;;;;;;0.10;0.10;;;9.00;99.90;;;;;;5023522;28;20243;-81
2023/02/24 02:47:18;;;;;;;0.10;0.10;;;9.00;99.90;;;;;;5025489;28;20193;-81
2023/02/24 02:49:50;;;;;;;0.10;0.10;;;8.90;99.90;;;;;;5024805;28;20186;-81
2023/02/24 02:52:25;;;;;;;0.10;0.10;;;9.00;99.90;;;;;;5025426;28;20239;-81
2023/02/24 02:55:02;;;;;;;0.10;0.10;;;8.90;99.90;;;;;;5026254;28;20217;-80
2023/02/24 02:57:32;;;;;;;0.10;0.10;;;8.80;99.90;;;;;;5025321;28;20198;-81
2023/02/24 03:00:07;;;;;;;0.10;0.10;;;8.80;99.90;;;;;;5027265;28;20205;-80
2023/02/24 03:02:37;;;;;;;0.10;0.10;;;9.00;99.90;;;;;;5023441;28;20263;-81
2023/02/24 03:05:03;;;;;;;0.00;0.00;;;8.90;99.90;;;;;;5026097;28;20208;-81
2023/02/24 03:07:36;;;;;;;0.03;0.03;;;9.00;99.90;;;;;;5025244;28;20189;-81
2023/02/24 03:10:09;;;;;;;0.10;0.10;;;9.00;99.90;;;;;;5025296;28;20542;-81
2023/02/24 03:12:38;;;;;;;0.10;0.10;;;9.00;99.90;;;;;;5024626;28;20192;-81
2023/02/24 03:15:09;;;;;;;0.10;0.10;;;9.10;99.90;;;;;;5025101;28;20240;-81
2023/02/24 03:17:39;;;;;;;0.00;0.00;;;9.20;99.90;;;;;;5025562;28;20852;-80
2023/02/24 03:20:31;;;;;;;0.10;0.10;;;9.10;99.90;;;;;;5027003;28;20218;-81
2023/02/24 03:23:17;;;;;;;0.03;0.03;;;9.20;99.90;;;;;;5020860;28;20221;-80
2023/02/24 03:26:15;;;;;;;0.10;0.10;;;9.20;99.90;;;;;;5024218;28;20185;-81
2023/02/24 03:28:52;;;;;;;0.10;0.10;;;9.30;99.90;;;;;;5027491;28;20194;-81
2023/02/24 03:31:29;;;;;;;0.10;0.10;;;9.30;99.90;;;;;;5029858;28;20193;-80
2023/02/24 03:34:20;;;;;;;0.10;0.10;;;9.30;99.90;;;;;;5030059;28;20203;-81
2023/02/24 03:36:46;;;;;;;0.03;0.03;;;9.30;99.90;;;;;;5028427;28;20190;-81
2023/02/24 03:39:14;;;;;;;0.10;0.10;;;9.30;99.90;;;;;;5029277;28;20200;-81
2023/02/24 03:42:06;;;;;;;0.10;0.10;;;9.30;99.90;;;;;;5024666;28;20189;-81
2023/02/24 03:44:32;;;;;;;0.10;0.10;;;9.30;99.90;;;;;;5026458;28;20221;-80
2023/02/24 03:46:59;;;;;;;0.00;0.00;;;9.30;99.90;;;;;;5028148;28;20555;-81
2023/02/24 03:49:25;;;;;;;0.10;0.10;;;9.30;99.90;;;;;;5031630;28;20179;-81
2023/02/24 03:52:11;;;;;;;0.10;0.10;;;9.30;99.90;;;;;;5028895;28;20240;-81
2023/02/24 03:55:05;;;;;;;0.10;0.10;;;9.40;99.90;;;;;;5029661;28;20210;-81
2023/02/24 03:57:54;;;;;;;0.10;0.10;;;9.40;99.90;;;;;;5027838;28;20222;-80
2023/02/24 04:00:59;;;;;;;0.10;0.10;;;9.20;99.90;;;;;;5028876;28;20190;-81
2023/02/24 04:03:37;;;;;;;0.10;0.10;;;8.90;99.90;;;;;;5029131;28;20292;-81
2023/02/24 04:06:20;;;;;;;0.10;0.10;;;8.90;99.90;;;;;;5030761;28;20184;-80
2023/02/24 04:09:00;;;;;;;0.10;0.10;;;9.00;99.90;;;;;;5029047;28;20316;-81
2023/02/24 04:11:32;;;;;;;0.10;0.10;;;9.00;99.90;;;;;;5028417;28;20192;-81
2023/02/24 04:14:05;;;;;;;0.03;0.03;;;9.00;99.90;;;;;;5026823;28;20209;-81
2023/02/24 04:16:42;;;;;;;0.10;0.10;;;9.10;99.90;;;;;;5029958;28;20197;-80
2023/02/24 04:19:13;;;;;;;0.10;0.10;;;9.10;99.90;;;;;;5029261;28;20291;-81
2023/02/24 04:21:41;;;;;;;0.10;0.10;;;9.10;99.90;;;;;;5028690;28;20553;-81
2023/02/24 04:24:14;;;;;;;0.10;0.10;;;9.10;99.90;;;;;;5032784;28;20364;-81
2023/02/24 04:26:43;;;;;;;0.03;0.03;;;8.90;99.90;;;;;;5028412;28;20189;-81
2023/02/24 04:29:16;;;;;;;0.00;0.00;;;8.90;99.90;;;;;;5027932;28;20182;-81
2023/02/24 04:31:44;;;;;;;0.10;0.10;;;9.00;99.90;;;;;;5031154;28;20182;-81
2023/02/24 04:34:11;;;;;;;0.00;0.00;;;9.00;99.90;;;;;;5031119;28;20203;-81
2023/02/24 04:36:37;;;;;;;0.07;0.07;;;9.00;99.90;;;;;;5027911;28;20197;-80
2023/02/24 04:39:03;;;;;;;0.10;0.10;;;9.00;99.90;;;;;;5027542;28;20206;-82
2023/02/24 04:41:29;;;;;;;0.10;0.10;;;9.00;99.90;;;;;;5025741;28;20604;-80
2023/02/24 04:43:55;;;;;;;0.00;0.00;;;8.90;99.90;;;;;;5026622;28;20206;-81
2023/02/24 04:46:22;;;;;;;0.10;0.10;;;8.90;99.90;;;;;;5022645;28;20251;-81
2023/02/24 04:48:49;;;;;;;0.10;0.10;;;8.90;99.90;;;;;;5025192;28;20193;-81
2023/02/24 04:51:15;;;;;;;0.10;0.10;;;8.90;99.90;;;;;;5022312;28;20567;-81
2023/02/24 04:53:41;;;;;;;0.10;0.10;;;8.80;99.90;;;;;;5028966;28;20209;-80
2023/02/24 04:56:07;;;;;;;0.10;0.10;;;8.70;99.90;;;;;;5025643;28;20276;-80
2023/02/24 04:58:34;;;;;;;0.10;0.10;;;8.80;99.90;;;;;;5025317;28;20207;-81
2023/02/24 05:01:07;;;;;;;0.10;0.10;;;8.90;99.90;;;;;;5026607;28;20198;-81
2023/02/24 05:03:34;;;;;;;0.00;0.00;;;8.70;99.90;;;;;;5027643;28;20588;-80
2023/02/24 05:06:00;;;;;;;0.10;0.10;;;8.70;99.90;;;;;;5029117;28;20185;-81
2023/02/24 05:08:27;;;;;;;0.10;0.10;;;8.60;99.90;;;;;;5027206;28;20193;-81
2023/02/24 05:10:55;;;;;;;0.10;0.10;;;8.70;99.90;;;;;;5023151;28;20201;-81
2023/02/24 05:13:26;;;;;;;0.07;0.07;;;8.70;99.90;;;;;;5029668;28;20285;-81
2023/02/24 05:15:54;;;;;;;0.10;0.10;;;8.80;99.90;;;;;;5026730;28;20279;-81
2023/02/24 05:18:19;;;;;;;0.10;0.10;;;8.90;99.90;;;;;;5027095;28;20292;-81
2023/02/24 05:23:38;;;;;;;0.10;0.10;;;9.00;99.90;;;;;;5028109;28;20278;-80
2023/02/24 05:26:08;;;;;;;0.10;0.10;;;9.00;99.90;;;;;;5020607;28;20181;-81
2023/02/24 05:28:39;;;;;;;0.10;0.10;;;9.00;99.90;;;;;;5024347;28;20194;-81
2023/02/24 05:31:09;;;;;;;0.10;0.10;;;9.00;99.90;;;;;;5026822;28;20190;-81
2023/02/24 05:33:37;;;;;;;0.10;0.10;;;8.90;99.90;;;;;;5026232;28;20213;-80
2023/02/24 05:36:05;;;;;;;0.10;0.10;;;8.90;99.90;;;;;;5027340;28;20656;-80
2023/02/24 05:38:31;;;;;;;0.10;0.10;;;8.90;99.90;;;;;;5027913;28;20213;-79
2023/02/24 05:41:07;;;;;;;0.10;0.10;;;8.90;99.90;;;;;;5024506;28;20247;-81
2023/02/24 05:43:34;;;;;;;0.10;0.10;;;8.90;99.90;;;;;;5026750;28;20208;-81
2023/02/24 05:46:03;;;;;;;0.10;0.10;;;8.90;99.90;;;;;;5020306;28;20567;-81
2023/02/24 05:48:33;;;;;;;0.10;0.10;;;8.80;99.90;;;;;;5028708;28;20189;-81
2023/02/24 05:51:02;;;;;;;0.10;0.10;;;8.80;99.90;;;;;;5025427;28;20198;-81
2023/02/24 05:53:28;;;;;;;0.10;0.10;;;8.70;99.90;;;;;;5021865;28;20209;-81
2023/02/24 05:55:54;;;;;;;0.10;0.10;;;8.60;99.90;;;;;;5027263;28;20185;-80
2023/02/24 05:58:20;;;;;;;0.10;0.10;;;8.50;99.90;;;;;;5026949;28;20216;-80
2023/02/24 06:00:45;;;;;;;0.10;0.10;;;8.50;99.90;;;;;;5026027;28;20228;-80
2023/02/24 06:03:16;;;;;;;0.10;0.10;;;8.50;99.90;;;;;;5028590;28;20182;-80
2023/02/24 06:05:52;;;;;;;0.10;0.10;;;8.60;99.90;;;;;;5021874;28;20299;-80
2023/02/24 06:08:18;;;;;;;0.00;0.00;;;8.50;99.90;;;;;;5028887;28;20177;-80
2023/02/24 06:10:45;;;;;;;0.10;0.10;;;8.60;99.90;;;;;;5027438;28;20196;-82
2023/02/24 06:13:11;;;;;;;0.10;0.10;;;8.60;99.90;;;;;;5022454;28;20186;-83
2023/02/24 06:15:37;;;;;;;0.10;0.10;;;8.50;99.90;;;;;;5028435;28;20227;-81
2023/02/24 06:18:02;;;;;;;0.10;0.10;;;8.40;99.90;;;;;;5023581;28;20244;-82
2023/02/24 06:20:31;;;;;;;0.10;0.10;;;8.40;99.90;;;;;;5024502;28;20187;-82
2023/02/24 06:22:57;;;;;;;0.10;0.10;;;8.20;99.90;;;;;;5026032;28;20210;-83
2023/02/24 06:25:28;;;;;;;0.10;0.10;;;8.10;99.90;;;;;;5024005;28;20182;-82
2023/02/24 06:27:54;;;;;;;0.10;0.10;;;8.20;99.90;;;;;;5020452;28;21011;-82
2023/02/24 06:30:22;;;;;;;0.10;0.10;;;8.10;99.90;;;;;;5026883;28;20555;-83
2023/02/24 06:32:48;;;;;;;0.10;0.10;;;8.10;99.90;;;;;;5023346;28;20249;-83
2023/02/24 06:35:14;;;;;;;0.10;0.10;;;8.10;99.90;;;;;;5023318;28;20235;-82
2023/02/24 06:37:40;;;;;;;0.10;0.10;;;8.10;99.90;;;;;;5021651;28;20214;-81
2023/02/24 06:40:16;;;;;;;0.10;0.10;;;8.30;99.90;;;;;;5026423;28;20566;-83
2023/02/24 06:42:52;;;;;;;0.10;0.10;;;8.30;99.90;;;;;;5023824;28;20185;-82
2023/02/24 06:45:19;;;;;;;0.10;0.10;;;8.40;99.90;;;;;;5018414;28;20201;-82
2023/02/24 06:47:47;;;;;;;0.10;0.10;;;8.30;99.90;;;;;;5027158;28;20201;-82
2023/02/24 06:50:14;;;;;;;0.10;0.10;;;8.40;99.90;;;;;;5020535;28;20368;-82
2023/02/24 06:52:42;;;;;;;0.07;0.07;;;8.60;99.90;;;;;;5026334;28;20194;-83
2023/02/24 06:55:24;;;;;;;0.10;0.10;;;8.70;99.90;;;;;;5023197;28;20722;-81
2023/02/24 06:58:03;;;;;;;0.10;0.10;;;8.80;99.90;;;;;;5023857;28;20729;-82
2023/02/24 07:00:37;;;;;;;0.10;0.10;;;8.60;99.90;;;;;;5025441;28;20252;-81
2023/02/24 07:03:35;;;;;;;0.10;0.10;;;8.60;99.90;;;;;;5024907;28;20184;-81
2023/02/24 07:06:22;;;;;;;0.10;0.10;;;8.70;99.90;;;;;;5026452;28;20182;-82
2023/02/24 07:08:50;;;;;;;0.10;0.10;;;8.80;99.90;;;;;;5020331;28;20221;-82
2023/02/24 07:11:17;;;;;;;0.10;0.10;;;8.90;99.90;;;;;;5025995;28;20185;-81
2023/02/24 07:13:46;;;;;;;0.10;0.10;;;8.80;99.90;;;;;;5025559;28;21230;-81
2023/02/24 07:16:14;;;;;;;0.10;0.10;;;8.90;99.90;;;;;;5023482;28;20244;-82
2023/02/24 07:18:41;;;;;;;0.10;0.10;;;8.90;99.90;;;;;;5021597;28;20244;-82
2023/02/24 07:21:11;;;;;;;0.10;0.10;;;8.90;99.90;;;;;;5021877;28;21203;-82
2023/02/24 07:23:39;;;;;;;0.10;0.10;;;8.90;99.90;;;;;;5020774;28;20271;-82
2023/02/24 07:26:14;;;;;;;0.10;0.10;;;8.90;99.90;;;;;;5018417;28;20190;-83
2023/02/24 07:28:41;;;;;;;0.10;0.10;;;8.90;99.90;;;;;;5020661;28;20189;-82
2023/02/24 07:31:09;;;;;;;0.10;0.10;;;8.90;99.90;;;;;;5021602;28;20193;-82
2023/02/24 07:33:35;;;;;;;0.10;0.10;;;8.90;99.90;;;;;;5022823;28;20695;-82
2023/02/24 07:36:07;;;;;;;0.10;0.10;;;9.00;99.90;;;;;;5022544;28;20238;-82
2023/02/24 07:38:37;;;;;;;0.10;0.10;;;9.10;99.90;;;;;;5021625;28;20297;-81
2023/02/24 07:41:05;;;;;;;0.10;0.10;;;9.10;99.90;;;;;;5022119;28;20174;-81
2023/02/24 07:43:32;;;;;;;0.10;0.10;;;9.20;99.90;;;;;;5018771;28;20236;-82
2023/02/24 07:46:08;;;;;;;0.10;0.10;;;9.10;99.90;;;;;;5022594;28;20309;-81
2023/02/24 07:48:37;;;;;;;0.10;0.10;;;9.10;99.90;;;;;;5020264;28;20194;-82
2023/02/24 07:51:10;;;;;;;0.10;0.10;;;9.20;99.90;;;;;;5010454;28;20200;-82
2023/02/24 07:53:36;;;;;;;0.10;0.10;;;9.30;99.90;;;;;;4998744;28;20214;-82
2023/02/24 07:56:12;;;;;;;0.10;0.10;;;9.30;99.90;;;;;;5004961;28;20597;-82
2023/02/24 07:58:43;;;;;;;0.10;0.10;;;9.40;99.90;;;;;;5013522;28;20296;-81
2023/02/24 08:01:16;;;;;;;0.10;0.10;;;9.20;99.90;;;;;;5021396;28;21213;-81
2023/02/24 08:03:43;;;;;;;0.10;0.10;;;9.30;99.90;;;;;;5018150;28;20693;-84
2023/02/24 08:06:14;;;;;;;0.10;0.10;;;9.40;99.90;;;;;;5016028;28;20726;-83
2023/02/24 08:08:56;;;;;;;0.10;0.10;;;9.40;99.90;;;;;;5016975;28;20844;-82
2023/02/24 08:11:23;;;;;;;0.10;0.10;;;9.40;99.90;;;;;;5020040;28;20186;-82
2023/02/24 08:13:49;;;;;;;0.10;0.10;;;9.50;99.90;;;;;;5021957;28;20296;-82
2023/02/24 08:16:15;;;;;;;0.10;0.10;;;9.40;99.90;;;;;;5024351;28;20250;-82
2023/02/24 08:18:47;;;;;;;0.10;0.10;;;9.50;99.90;;;;;;5024262;28;20256;-83
2023/02/24 08:21:14;;;;;;;0.10;0.10;;;9.50;99.90;;;;;;5023753;28;20179;-82
2023/02/24 08:23:43;;;;;;;0.10;0.10;;;9.60;99.90;;;;;;5021422;28;20495;-82
2023/02/24 08:26:11;;;;;;;0.10;0.10;;;9.60;99.90;;;;;;5023621;28;20182;-82
2023/02/24 08:28:40;;;;;;;0.10;0.10;;;9.70;99.90;;;;;;5024681;28;20197;-83
2023/02/24 08:31:05;;;;;;;0.10;0.10;;;9.80;99.90;;;;;;5028595;28;20277;-82
2023/02/24 08:33:31;;;;;;;0.10;0.10;;;9.50;99.90;;;;;;5019986;28;20309;-83
2023/02/24 08:36:00;;;;;;;0.10;0.10;;;9.70;99.90;;;;;;5025337;28;20190;-82
2023/02/24 08:38:38;;;;;;;0.10;0.10;;;9.80;99.90;;;;;;5028912;28;20233;-81
2023/02/24 08:41:04;;;;;;;0.10;0.10;;;9.90;99.90;;;;;;5023965;28;20266;-81
2023/02/24 08:43:37;;;;;;;0.10;0.10;;;10.00;99.90;;;;;;5027847;28;20202;-82
2023/02/24 08:46:31;;;;;;;0.10;0.10;;;10.10;99.90;;;;;;5028879;28;20171;-82
2023/02/24 08:49:01;;;;;;;0.10;0.10;;;10.30;99.90;;;;;;5026491;28;20182;-82
2023/02/24 08:51:35;;;;;;;0.10;0.10;;;10.30;99.90;;;;;;5027075;28;20229;-82
2023/02/24 08:54:09;;;;;;;0.10;0.10;;;10.30;99.90;;;;;;5020075;28;20252;-83
2023/02/24 08:56:42;;;;;;;0.10;0.10;;;10.40;99.90;;;;;;5026344;28;20182;-82
2023/02/24 08:59:14;;;;;;;0.10;0.10;;;10.50;99.90;;;;;;5022000;28;20762;-83
2023/02/24 09:01:51;;;;;;;0.10;0.10;;;10.50;99.90;;;;;;5027494;28;20313;-83
2023/02/24 09:04:18;;;;;;;0.10;0.10;;;10.60;99.90;;;;;;5022618;28;20425;-82
2023/02/24 09:06:56;;;;;;;0.10;0.10;;;10.60;99.90;;;;;;5025877;28;20530;-83
2023/02/24 09:09:23;;;;;;;0.10;0.10;;;10.60;99.90;;;;;;5027610;28;20224;-82
2023/02/24 09:11:54;;;;;;;0.10;0.10;;;10.60;99.90;;;;;;5026066;28;20277;-82
2023/02/24 09:14:26;;;;;;;0.10;0.10;;;10.50;99.90;;;;;;5023532;28;20245;-82
2023/02/24 09:17:01;;;;;;;0.10;0.10;;;10.40;99.90;;;;;;5025254;28;20186;-83
2023/02/24 09:22:13;;;;;;;0.10;0.10;;;10.60;99.90;;;;;;5027773;28;20648;-82
2023/02/24 09:24:39;;;;;;;0.10;0.10;;;10.70;99.90;;;;;;5024978;28;20206;-82
2023/02/24 09:27:06;;;;;;;0.10;0.10;;;10.60;99.90;;;;;;5024069;28;20198;-83
2023/02/24 09:29:34;;;;;;;0.10;0.10;;;10.60;99.90;;;;;;5022851;28;20190;-84
2023/02/24 09:32:04;;;;;;;0.10;0.10;;;10.60;99.90;;;;;;5026520;28;20182;-82
2023/02/24 09:34:30;;;;;;;0.10;0.10;;;10.70;99.90;;;;;;5023711;28;20221;-84
2023/02/24 09:37:01;;;;;;;0.10;0.10;;;10.90;99.90;;;;;;5028439;28;20299;-83
2023/02/24 09:39:29;;;;;;;0.00;0.00;;;11.00;99.90;;;;;;5024993;28;21552;-82
2023/02/24 09:42:27;;;;;;;0.10;0.10;;;11.10;99.90;;;;;;5025624;28;20178;-82
2023/02/24 09:44:51;;;;;;;0.10;0.10;;;11.20;99.90;;;;;;5028771;28;20205;-82
2023/02/24 09:50:19;;;;;;;0.10;0.10;;;11.20;99.90;;;;;;5026409;28;20201;-83
2023/02/24 09:52:49;;;;;;;0.10;0.10;;;11.20;99.90;;;;;;5024407;28;20266;-83
2023/02/24 09:55:28;;;;;;;0.10;0.10;;;11.10;99.90;;;;;;5024979;28;20203;-82
2023/02/24 10:01:22;;;;;;;0.10;0.10;;;11.10;99.90;;;;;;5029838;28;20202;-83
2023/02/24 10:04:03;;;;;;;0.10;0.10;;;11.20;99.90;;;;;;5012457;28;20218;-83
2023/02/24 10:06:41;;;;;;;0.10;0.10;;;11.10;99.90;;;;;;5025349;28;20182;-82
2023/02/24 10:09:25;;;;;;;1.90;1.57;;;11.10;99.90;;;;;;5023719;28;20191;-83
2023/02/24 10:12:02;;;;;;;0.10;0.10;;;11.00;99.90;;;;;;5026721;28;20194;-83
2023/02/24 10:14:53;;;;;;;0.10;0.10;;;11.00;99.90;;;;;;5026245;28;20224;-83
2023/02/24 10:17:24;;;;;;;0.10;0.10;;;10.90;99.90;;;;;;5027237;28;20309;-82
2023/02/24 10:19:58;;;;;;;0.10;0.10;;;11.10;99.90;;;;;;5026421;28;21108;-82
2023/02/24 10:22:33;;;;;;;0.10;0.10;;;11.20;99.90;;;;;;5022057;28;20178;-83
2023/02/24 10:25:25;;;;;;;0.10;0.10;;;11.20;99.90;;;;;;5025834;28;20289;-82
2023/02/24 10:28:07;;;;;;;0.10;0.10;;;11.40;99.90;;;;;;5024816;28;20186;-82
2023/02/24 10:30:45;;;;;;;0.10;0.10;;;11.60;99.90;;;;;;5026293;28;20953;-82
2023/02/24 10:33:29;;;;;;;0.10;0.10;;;11.60;99.90;;;;;;5025811;28;20178;-83
2023/02/24 10:36:07;;;;;;;0.10;0.10;;;11.60;99.90;;;;;;5026373;28;20189;-82
2023/02/24 10:38:34;;;;;;;0.10;0.10;;;11.60;99.90;;;;;;5023909;28;20205;-82
2023/02/24 10:41:04;;;;;;;0.10;0.10;;;11.80;99.90;;;;;;5024493;28;20655;-83
2023/02/24 10:43:32;;;;;;;0.10;0.10;;;12.10;99.90;;;;;;5026356;28;20297;-81
2023/02/24 10:46:05;;;;;;;0.10;0.10;;;12.10;99.90;;;;;;5023370;28;20182;-83
2023/02/24 10:48:37;;;;;;;0.00;0.00;;;12.10;99.90;;;;;;5026605;28;20261;-82
2023/02/24 10:51:10;;;;;;;0.10;0.10;;;12.20;99.90;;;;;;5024886;28;20186;-83
2023/02/24 10:56:25;;;;;;;0.10;0.10;;;12.20;99.90;;;;;;5027823;28;20209;-83
2023/02/24 11:02:28;;;;;;;0.10;0.10;;;12.50;99.90;;;;;;5020979;28;20205;-83
2023/02/24 11:07:52;;;;;;;0.10;0.10;;;12.70;99.90;;;;;;5028225;28;20193;-82
2023/02/24 11:10:31;;;;;;;0.10;0.10;;;12.70;99.90;;;;;;5024163;28;20201;-83
2023/02/24 11:18:35;;;;;;;0.10;0.10;;;12.30;99.90;;;;;;5028613;28;20270;-82
2023/02/24 11:21:07;;;;;;;0.10;0.10;;;12.30;99.90;;;;;;5025732;28;20186;-83
2023/02/24 11:23:58;;;;;;;0.10;0.10;;;12.60;99.90;;;;;;5021969;28;20708;-82
2023/02/24 11:26:40;;;;;;;0.10;0.10;;;12.80;99.90;;;;;;5026262;28;20297;-83
2023/02/24 11:29:16;;;;;;;0.10;0.10;;;12.70;99.90;;;;;;5028508;28;20182;-83
2023/02/24 11:31:41;;;;;;;0.10;0.10;;;12.70;99.90;;;;;;5025574;28;20656;-83
2023/02/24 11:34:29;;;;;;;0.10;0.10;;;12.90;99.90;;;;;;5022362;28;20214;-83
2023/02/24 11:37:02;;;;;;;0.10;0.10;;;13.00;99.90;;;;;;5027170;28;20178;-82
2023/02/24 11:39:46;;;;;;;0.10;0.10;;;13.40;99.90;;;;;;5026376;28;20214;-84
2023/02/24 11:42:18;;;;;;;0.10;0.10;;;13.30;99.90;;;;;;5027534;28;20785;-82
2023/02/24 11:44:52;;;;;;;0.10;0.10;;;13.20;99.90;;;;;;5027123;28;20202;-82
2023/02/24 11:47:26;;;;;;;0.10;0.10;;;13.10;99.90;;;;;;5028457;28;20182;-82
2023/02/24 11:50:38;;;;;;;0.10;0.10;;;12.90;99.90;;;;;;5029862;28;20232;-83
2023/02/24 11:53:13;;;;;;;0.10;0.10;;;12.60;99.90;;;;;;5021711;28;20199;-82
2023/02/24 11:55:45;;;;;;;0.10;0.10;;;12.30;99.90;;;;;;5031373;28;20286;-82
2023/02/24 11:58:38;;;;;;;0.10;0.10;;;12.30;99.90;;;;;;5030556;28;20227;-83
2023/02/24 12:01:18;;;;;;;0.10;0.10;;;12.30;99.90;;;;;;5030304;28;20237;-83
2023/02/24 12:04:03;;;;;;;0.10;0.10;;;12.30;99.90;;;;;;5030060;28;20229;-82
2023/02/24 12:06:41;;;;;;;0.10;0.10;;;12.30;99.90;;;;;;5026339;28;20281;-81
2023/02/24 12:09:15;;;;;;;0.10;0.10;;;12.50;99.90;;;;;;5025401;28;20554;-81
2023/02/24 12:11:49;;;;;;;0.10;0.10;;;12.40;99.90;;;;;;5023717;28;20182;-81
2023/02/24 12:14:29;;;;;;;0.00;0.00;;;12.40;99.90;;;;;;5027177;28;20231;-82
2023/02/24 12:17:10;;;;;;;0.10;0.10;;;12.30;99.90;;;;;;5025098;28;20558;-82
2023/02/24 12:19:56;;;;;;;0.10;0.10;;;12.30;99.90;;;;;;5030719;28;20202;-82
2023/02/24 12:22:25;;;;;;;0.10;0.10;;;12.30;99.90;;;;;;5024942;28;20253;-82
2023/02/24 12:24:51;;;;;;;0.10;0.10;;;12.30;99.90;;;;;;5028003;28;20401;-81
2023/02/24 12:27:41;;;;;;;0.10;0.10;;;12.30;99.90;;;;;;5029030;28;20867;-81
2023/02/24 12:30:47;;;;;;;0.10;0.10;;;12.10;99.90;;;;;;5027909;28;20269;-82
2023/02/24 12:33:42;;;;;;;0.10;0.10;;;12.10;99.90;;;;;;5026883;28;20591;-82
2023/02/24 12:36:30;;;;;;;0.10;0.10;;;12.20;99.90;;;;;;5027473;28;20253;-82
2023/02/24 12:39:19;;;;;;;0.10;0.10;;;12.30;99.90;;;;;;5024004;28;20240;-82
2023/02/24 12:42:11;;;;;;;0.10;0.10;;;12.30;99.90;;;;;;5027496;28;20183;-83
2023/02/24 12:44:47;;;;;;;0.10;0.10;;;12.20;99.90;;;;;;5030103;28;20243;-82
2023/02/24 12:47:20;;;;;;;0.10;0.10;;;12.20;99.90;;;;;;5026584;28;20266;-82
2023/02/24 12:50:12;;;;;;;0.10;0.10;;;12.00;99.90;;;;;;5025962;28;20194;-83
2023/02/24 12:52:55;;;;;;;1.00;1.00;;;11.90;99.90;;;;;;5028319;28;20217;-82
2023/02/24 12:55:59;;;;;;;1.77;1.70;;;11.80;99.90;;;;;;5027449;28;20212;-83
2023/02/24 12:58:33;;;;;;;0.10;0.10;;;11.80;99.90;;;;;;5028989;28;20206;-82
2023/02/24 13:01:20;;;;;;;0.10;0.10;;;11.70;99.90;;;;;;5025097;28;20196;-82
2023/02/24 13:03:58;;;;;;;0.10;0.10;;;11.60;99.90;;;;;;5022914;28;20233;-82
2023/02/24 13:06:43;;;;;;;0.10;0.10;;;11.60;99.90;;;;;;5018251;28;20644;-82
2023/02/24 13:09:21;;;;;;;0.10;0.10;;;11.60;99.90;;;;;;5021360;28;20553;-82
2023/02/24 13:12:15;;;;;;;0.10;0.10;;;11.60;99.90;;;;;;5020662;28;20210;-83
2023/02/24 13:14:42;;;;;;;0.10;0.10;;;11.50;99.90;;;;;;5025877;28;20198;-81
2023/02/24 13:17:09;;;;;;;0.10;0.10;;;11.40;99.90;;;;;;5026523;28;20190;-82
2023/02/24 13:19:35;;;;;;;0.10;0.10;;;11.30;99.90;;;;;;5023426;28;20666;-82
2023/02/24 13:22:12;;;;;;;0.10;0.10;;;11.30;99.90;;;;;;5024562;28;20182;-82
2023/02/24 13:24:55;;;;;;;0.00;0.00;;;11.10;99.90;;;;;;5025726;28;20218;-82
2023/02/24 13:27:25;;;;;;;0.10;0.10;;;11.20;99.90;;;;;;5022476;28;20186;-82
2023/02/24 13:30:00;;;;;;;0.10;0.10;;;11.00;99.90;;;;;;5025922;28;20235;-82
2023/02/24 13:32:34;;;;;;;0.10;0.10;;;10.90;99.90;;;;;;5040278;28;20186;-82
2023/02/24 13:35:04;;;;;;;0.10;0.10;;;11.10;99.90;;;;;;5025744;28;20359;-82
2023/02/24 13:37:36;;;;;;;0.10;0.10;;;11.00;99.90;;;;;;5024770;28;20198;-82
2023/02/24 13:40:25;;;;;;;0.10;0.10;;;11.00;99.90;;;;;;5024414;28;20194;-82
2023/02/24 13:42:59;;;;;;;0.10;0.10;;;10.90;99.90;;;;;;5025348;28;20183;-83
2023/02/24 13:45:25;;;;;;;0.10;0.10;;;11.00;99.90;;;;;;5020606;28;20201;-83
2023/02/24 13:47:50;;;;;;;0.00;0.00;;;11.00;99.90;;;;;;5021493;28;21092;-82
2023/02/24 13:50:45;;;;;;;0.10;0.10;;;10.80;99.90;;;;;;5017352;28;21772;-82
2023/02/24 13:53:22;;;;;;;0.10;0.10;;;10.80;99.90;;;;;;4999964;28;20195;-82
2023/02/24 13:56:09;;;;;;;1.17;1.17;;;10.70;99.90;;;;;;5022879;28;20186;-82